Terminal Aerodrome Forecast
Issued by NWS

Home | Current Version | Previous Version | Text Only | Print | Product List | Glossary On
Versions: 1 2 3 4 5 6 7 8 9 10 11 12 13 14 15 16 17 18 19
000
FTUS45 KRIW 281100
TAFCPR
TAF
KCPR 281123Z 2812/2912 26007KT P6SM SCT100 SCT150
     FM281500 29008KT P6SM FEW150
     FM281800 32010KT P6SM SCT080
     FM290100 31007KT P6SM FEW090
     FM290500 24008KT P6SM SKC=

USA.gov is the U.S. government's official web portal to all federal, state and local government web resources and services.